Time;durP1;ratioP1;P1;durP2;ratioP2;P2;SDS_P1;SDS_P2;PMS_P1;PMS_P2;Temp;Humidity;BMP_temperature;BMP_pressure;BME280_temperature;BME280_humidity;BME280_pressure;Samples;Min_cycle;Max_cycle;Signal;HPM_P1;HPM_P2
2021/12/16 00:03:37;;;;;;;3.80;3.50;;;17.70;60.40;;;;;;5032204;28;20992;-82
2021/12/16 00:06:42;;;;;;;4.10;3.43;;;17.70;60.40;;;;;;5047972;28;20461;-82
2021/12/16 00:09:06;;;;;;;4.07;3.63;;;17.70;60.30;;;;;;5061097;28;20438;-82
2021/12/16 00:34:00;;;;;;;3.93;3.60;;;17.70;60.40;;;;;;5061224;28;20997;-82
2021/12/16 00:36:30;;;;;;;4.20;3.80;;;17.70;60.40;;;;;;5062155;28;20450;-82
2021/12/16 00:38:58;;;;;;;3.97;3.57;;;17.70;60.40;;;;;;5062609;28;20434;-82
2021/12/16 00:41:26;;;;;;;4.03;3.73;;;17.70;60.50;;;;;;5050978;28;20474;-82
2021/12/16 00:44:02;;;;;;;4.20;3.80;;;17.70;60.30;;;;;;5059617;28;20446;-82
2021/12/16 00:49:32;;;;;;;3.80;3.57;;;17.70;60.40;;;;;;5059063;28;20519;-82
2021/12/16 00:54:52;;;;;;;4.87;3.47;;;17.80;60.40;;;;;;5061296;28;20482;-82
2021/12/16 00:57:26;;;;;;;3.97;3.67;;;17.70;60.30;;;;;;5060250;28;20534;-82
2021/12/16 00:59:57;;;;;;;3.93;3.47;;;17.70;60.40;;;;;;5061238;28;20481;-82
2021/12/16 01:02:47;;;;;;;3.67;3.03;;;17.80;60.40;;;;;;5061684;28;20414;-82
2021/12/16 01:05:57;;;;;;;6.30;4.03;;;17.80;60.40;;;;;;5061270;28;20407;-82
2021/12/16 01:08:45;;;;;;;3.60;3.30;;;17.80;60.40;;;;;;5061028;28;20454;-82
2021/12/16 01:33:52;;;;;;;4.00;3.70;;;17.70;60.40;;;;;;5063447;28;20514;-82
2021/12/16 01:36:39;;;;;;;4.60;3.60;;;17.80;60.60;;;;;;5063751;28;20502;-82
2021/12/16 01:47:51;;;;;;;4.80;3.63;;;17.80;60.60;;;;;;5065709;28;20493;-82
2021/12/16 01:50:25;;;;;;;4.20;3.40;;;17.80;60.60;;;;;;5063153;28;20478;-81
2021/12/16 01:55:46;;;;;;;5.07;3.70;;;17.80;60.60;;;;;;5064475;28;20499;-82
2021/12/16 01:58:17;;;;;;;3.70;3.23;;;17.80;60.50;;;;;;5064338;28;20470;-82
2021/12/16 02:00:57;;;;;;;3.57;3.30;;;17.90;60.50;;;;;;5064382;28;20450;-82
2021/12/16 02:03:39;;;;;;;3.73;3.43;;;17.80;60.30;;;;;;5064736;28;20457;-82
2021/12/16 02:06:22;;;;;;;4.60;4.07;;;17.80;60.40;;;;;;5063480;28;20443;-82
2021/12/16 02:08:52;;;;;;;4.17;3.80;;;17.80;60.50;;;;;;5057028;28;20548;-82
2021/12/16 02:11:31;;;;;;;4.83;3.20;;;17.80;60.50;;;;;;5058262;28;20442;-82
2021/12/16 02:28:09;;;;;;;4.30;3.37;;;17.80;60.50;;;;;;5064286;28;20477;-82
2021/12/16 02:34:05;;;;;;;3.33;3.13;;;17.90;60.50;;;;;;5064395;28;20497;-82
2021/12/16 02:36:39;;;;;;;3.97;3.57;;;17.90;60.60;;;;;;5064503;28;20465;-82
2021/12/16 02:39:10;;;;;;;3.50;3.20;;;17.90;60.50;;;;;;5064684;28;20425;-82
2021/12/16 02:41:41;;;;;;;6.03;3.70;;;17.90;60.50;;;;;;5064158;28;20477;-82
2021/12/16 02:44:22;;;;;;;4.37;3.63;;;17.90;60.50;;;;;;5058765;28;20501;-82
2021/12/16 02:49:39;;;;;;;4.03;3.63;;;17.90;60.40;;;;;;5059966;28;20473;-82
2021/12/16 02:52:07;;;;;;;3.37;3.07;;;17.90;60.40;;;;;;5063946;28;20501;-82
2021/12/16 02:54:37;;;;;;;3.53;3.30;;;17.90;60.50;;;;;;5052766;28;20521;-82
2021/12/16 02:57:05;;;;;;;5.03;3.50;;;17.90;60.60;;;;;;5063119;28;20434;-82
2021/12/16 02:59:33;;;;;;;4.10;3.70;;;17.90;61.20;;;;;;5059701;28;20480;-82
2021/12/16 03:02:06;;;;;;;3.57;3.37;;;17.90;60.40;;;;;;5046771;28;20442;-82
2021/12/16 03:04:35;;;;;;;4.00;3.60;;;17.90;60.50;;;;;;5064783;28;20459;-80
2021/12/16 03:07:03;;;;;;;3.80;3.53;;;18.00;60.50;;;;;;5063383;28;20471;-81
2021/12/16 03:12:46;;;;;;;3.60;3.30;;;18.00;60.50;;;;;;5065503;28;20469;-80
2021/12/16 03:15:23;;;;;;;3.73;3.43;;;18.00;60.50;;;;;;5064539;28;20510;-80
2021/12/16 03:17:58;;;;;;;3.90;3.60;;;17.90;60.40;;;;;;5065946;28;20461;-80
2021/12/16 03:20:35;;;;;;;3.73;3.40;;;18.00;60.60;;;;;;5065012;28;20469;-80
2021/12/16 03:23:19;;;;;;;4.50;3.77;;;18.00;60.50;;;;;;5063675;28;20488;-80
2021/12/16 03:26:02;;;;;;;3.80;3.40;;;18.00;60.60;;;;;;5063750;28;20497;-80
2021/12/16 03:29:00;;;;;;;4.50;3.30;;;18.10;60.60;;;;;;5063828;28;20434;-82
2021/12/16 03:31:48;;;;;;;3.40;3.20;;;18.00;60.40;;;;;;5063410;28;20427;-81
2021/12/16 03:34:31;;;;;;;3.73;3.43;;;18.00;60.40;;;;;;5057865;28;20506;-81
2021/12/16 03:37:14;;;;;;;3.93;3.63;;;18.00;60.40;;;;;;5063897;28;20505;-81
2021/12/16 03:39:44;;;;;;;3.70;3.40;;;18.00;60.50;;;;;;5063619;28;20601;-81
2021/12/16 03:42:13;;;;;;;3.70;3.40;;;18.00;60.50;;;;;;5063346;28;20446;-81
2021/12/16 03:44:53;;;;;;;4.50;3.70;;;18.00;60.40;;;;;;5063839;28;20473;-81
2021/12/16 03:47:25;;;;;;;4.00;3.40;;;18.00;60.40;;;;;;5063482;28;20419;-81
2021/12/16 03:49:53;;;;;;;3.60;3.27;;;18.00;60.30;;;;;;5063502;28;20411;-81
2021/12/16 03:52:22;;;;;;;3.50;3.30;;;18.00;60.40;;;;;;5047398;28;20502;-81
2021/12/16 03:54:52;;;;;;;3.80;3.50;;;18.00;60.40;;;;;;5060977;28;20501;-82
2021/12/16 03:57:22;;;;;;;3.53;3.23;;;18.10;60.60;;;;;;5062392;28;20477;-82
2021/12/16 03:59:52;;;;;;;3.23;3.00;;;18.10;60.60;;;;;;5062105;28;20504;-82
2021/12/16 04:02:26;;;;;;;3.17;2.97;;;18.00;60.50;;;;;;5063259;28;20453;-82
2021/12/16 04:04:55;;;;;;;4.03;3.73;;;18.00;60.40;;;;;;5062462;28;20446;-82
2021/12/16 04:07:29;;;;;;;3.27;3.00;;;18.00;60.50;;;;;;5056152;28;20498;-82
2021/12/16 04:09:58;;;;;;;3.40;3.10;;;18.00;60.50;;;;;;5045463;28;20427;-81
2021/12/16 04:12:28;;;;;;;3.40;3.17;;;18.10;60.60;;;;;;5062197;28;20441;-81
2021/12/16 04:14:59;;;;;;;3.20;3.00;;;18.00;60.50;;;;;;5062249;28;20513;-81
2021/12/16 04:17:28;;;;;;;3.70;3.40;;;18.10;60.50;;;;;;5062723;28;20461;-81
2021/12/16 04:19:57;;;;;;;2.90;2.70;;;18.00;60.50;;;;;;5062424;28;20438;-81
2021/12/16 04:22:29;;;;;;;3.53;3.00;;;18.10;60.70;;;;;;5062109;28;20520;-81
2021/12/16 04:25:00;;;;;;;4.40;3.60;;;18.10;60.60;;;;;;5053609;28;20561;-81
2021/12/16 04:27:29;;;;;;;3.90;3.60;;;18.10;60.40;;;;;;5061961;28;20434;-81
2021/12/16 04:29:58;;;;;;;3.60;3.30;;;18.10;60.60;;;;;;5062519;28;20541;-81
2021/12/16 04:32:26;;;;;;;3.40;3.20;;;18.10;60.60;;;;;;5061398;28;20442;-81
2021/12/16 04:34:55;;;;;;;3.93;3.63;;;18.10;60.50;;;;;;5061505;28;20505;-81
2021/12/16 04:37:23;;;;;;;4.60;3.40;;;18.10;60.50;;;;;;5061982;28;20466;-81
2021/12/16 04:39:51;;;;;;;3.60;3.30;;;18.10;60.60;;;;;;5061633;28;20525;-81
2021/12/16 04:42:22;;;;;;;3.27;2.93;;;18.10;60.60;;;;;;5057710;28;20446;-81
2021/12/16 04:44:50;;;;;;;3.53;3.23;;;18.10;60.60;;;;;;5061981;28;20549;-81
2021/12/16 04:47:20;;;;;;;3.87;3.57;;;18.10;60.50;;;;;;5062203;28;20446;-81
2021/12/16 04:49:49;;;;;;;3.37;3.13;;;18.10;60.60;;;;;;5062133;28;20423;-81
2021/12/16 04:52:18;;;;;;;3.33;3.03;;;18.10;60.50;;;;;;5062129;28;20470;-81
2021/12/16 04:54:47;;;;;;;3.43;3.23;;;18.10;60.50;;;;;;5061515;28;20474;-81
2021/12/16 04:57:15;;;;;;;3.23;3.00;;;18.10;60.60;;;;;;5056531;28;20470;-81
2021/12/16 04:59:43;;;;;;;3.47;3.20;;;18.20;60.70;;;;;;5042328;28;20436;-81
2021/12/16 05:02:13;;;;;;;2.97;2.73;;;18.20;60.60;;;;;;5048871;28;20519;-81
2021/12/16 05:04:43;;;;;;;3.27;3.07;;;18.10;60.50;;;;;;5062094;28;20438;-81
2021/12/16 05:07:11;;;;;;;3.67;3.37;;;18.10;60.60;;;;;;5057693;28;20466;-81
2021/12/16 05:12:26;;;;;;;3.20;2.80;;;18.10;60.60;;;;;;5050128;28;20477;-81
2021/12/16 05:14:54;;;;;;;3.93;3.13;;;18.20;60.70;;;;;;5050701;28;20535;-81
2021/12/16 05:17:27;;;;;;;3.50;3.20;;;18.10;60.70;;;;;;5049139;28;20491;-81
2021/12/16 05:20:00;;;;;;;3.20;2.90;;;18.20;60.70;;;;;;5048367;28;20443;-81
2021/12/16 05:25:21;;;;;;;3.03;2.83;;;18.20;60.80;;;;;;5062257;28;20462;-82
2021/12/16 05:27:50;;;;;;;2.97;2.77;;;18.20;60.70;;;;;;5061967;28;20485;-81
2021/12/16 05:30:18;;;;;;;5.13;3.37;;;18.20;60.60;;;;;;5057897;28;20486;-81
2021/12/16 05:32:46;;;;;;;6.20;3.00;;;18.20;60.60;;;;;;5051642;28;20435;-81
2021/12/16 05:35:17;;;;;;;3.20;3.00;;;18.20;60.70;;;;;;5047816;28;20466;-82
2021/12/16 05:37:45;;;;;;;4.07;3.30;;;18.20;60.70;;;;;;5059165;28;20462;-81
2021/12/16 05:40:15;;;;;;;3.93;3.53;;;18.20;60.60;;;;;;5053556;28;20439;-81
2021/12/16 05:42:43;;;;;;;3.67;3.37;;;18.20;60.60;;;;;;5043874;28;20428;-81
2021/12/16 05:45:11;;;;;;;3.60;3.30;;;18.20;60.80;;;;;;5040039;28;20443;-81
2021/12/16 05:47:39;;;;;;;3.93;3.27;;;18.20;61.40;;;;;;5056542;28;20550;-81
2021/12/16 05:50:08;;;;;;;3.63;3.13;;;18.20;60.70;;;;;;5061794;28;20476;-81
2021/12/16 05:52:37;;;;;;;3.47;3.17;;;18.20;61.20;;;;;;5054185;28;20473;-80
2021/12/16 05:55:05;;;;;;;3.33;3.13;;;18.20;61.00;;;;;;5061160;28;20462;-80
2021/12/16 05:57:34;;;;;;;3.60;3.30;;;18.20;61.00;;;;;;5061509;28;20446;-82
2021/12/16 06:00:02;;;;;;;3.07;2.87;;;18.20;60.90;;;;;;5061022;28;20478;-81
2021/12/16 06:02:30;;;;;;;3.23;3.00;;;18.20;60.90;;;;;;5057897;28;20455;-81
2021/12/16 06:04:58;;;;;;;3.70;3.40;;;18.20;60.70;;;;;;5049715;28;20498;-82
2021/12/16 06:07:26;;;;;;;4.83;3.20;;;18.20;60.70;;;;;;5052512;28;20486;-82
2021/12/16 06:09:55;;;;;;;4.30;3.30;;;18.20;60.60;;;;;;5045979;28;20473;-81
2021/12/16 06:12:25;;;;;;;4.30;3.90;;;18.20;60.70;;;;;;5051677;28;20457;-81
2021/12/16 06:15:04;;;;;;;5.13;3.50;;;18.20;60.70;;;;;;5051795;28;20470;-81
2021/12/16 06:28:41;;;;;;;3.23;2.93;;;18.20;60.70;;;;;;5054804;28;20459;-82
2021/12/16 06:31:09;;;;;;;4.93;3.23;;;18.20;60.80;;;;;;5053426;28;20505;-81
2021/12/16 06:33:36;;;;;;;4.10;3.00;;;18.20;60.80;;;;;;5053799;28;20564;-81
2021/12/16 06:36:04;;;;;;;3.40;3.10;;;18.20;60.70;;;;;;5050914;28;20565;-81
2021/12/16 06:38:32;;;;;;;3.23;3.03;;;18.20;60.60;;;;;;5050293;28;20458;-81
2021/12/16 06:41:02;;;;;;;3.53;3.23;;;18.20;60.70;;;;;;5053375;28;20470;-82
2021/12/16 06:43:31;;;;;;;4.50;3.57;;;18.20;60.70;;;;;;5055143;28;20474;-81
2021/12/16 06:46:01;;;;;;;3.83;2.90;;;18.20;60.70;;;;;;5057891;28;20450;-81
2021/12/16 06:48:32;;;;;;;4.10;3.70;;;18.20;60.60;;;;;;5054413;28;20463;-81
2021/12/16 06:51:04;;;;;;;8.67;3.27;;;18.20;60.60;;;;;;5061420;28;20466;-81
2021/12/16 06:53:44;;;;;;;4.90;3.60;;;18.30;60.70;;;;;;5061086;28;20505;-81
2021/12/16 06:56:19;;;;;;;5.73;3.20;;;18.30;60.70;;;;;;5057747;28;20502;-81
2021/12/16 06:58:50;;;;;;;8.03;3.20;;;18.20;60.60;;;;;;5053944;28;20470;-81
2021/12/16 07:01:37;;;;;;;4.03;3.23;;;18.20;60.70;;;;;;5056482;28;20448;-81
2021/12/16 07:04:06;;;;;;;3.97;3.60;;;18.20;60.80;;;;;;5051501;28;20466;-81
2021/12/16 07:06:34;;;;;;;4.13;2.90;;;18.30;60.80;;;;;;5058363;28;20466;-82
2021/12/16 07:09:09;;;;;;;3.50;3.20;;;18.30;60.80;;;;;;5051938;28;20514;-81
2021/12/16 07:11:41;;;;;;;3.90;3.50;;;18.30;60.70;;;;;;5062622;28;20442;-81
2021/12/16 07:14:13;;;;;;;3.57;3.27;;;18.30;60.80;;;;;;5049862;28;20490;-82
2021/12/16 07:16:41;;;;;;;4.87;3.23;;;18.30;60.70;;;;;;5052095;28;20502;-81
2021/12/16 07:19:10;;;;;;;3.53;3.00;;;18.30;60.70;;;;;;5054447;28;20561;-82
2021/12/16 07:21:38;;;;;;;4.00;3.60;;;18.30;60.60;;;;;;5064777;28;20466;-82
2021/12/16 07:24:10;;;;;;;3.17;2.87;;;18.30;60.70;;;;;;5048969;28;20503;-82
2021/12/16 07:26:39;;;;;;;3.90;2.77;;;18.20;60.70;;;;;;5039558;28;20467;-81
2021/12/16 07:29:07;;;;;;;3.30;3.00;;;18.30;60.70;;;;;;5038082;28;20539;-81
2021/12/16 07:31:37;;;;;;;5.20;3.50;;;18.30;60.70;;;;;;5038756;28;20534;-81
2021/12/16 07:34:05;;;;;;;7.47;3.60;;;18.30;61.40;;;;;;5045586;28;20489;-82
2021/12/16 07:36:33;;;;;;;3.10;2.90;;;18.30;60.70;;;;;;5050426;28;20506;-81
2021/12/16 07:39:02;;;;;;;4.10;3.17;;;18.30;60.10;;;;;;5048854;28;20458;-81
2021/12/16 07:41:33;;;;;;;3.60;2.93;;;18.30;60.80;;;;;;5054497;28;20489;-81
2021/12/16 07:44:10;;;;;;;3.17;2.90;;;18.30;60.70;;;;;;5057476;28;20516;-81
2021/12/16 07:46:38;;;;;;;5.90;3.67;;;18.20;60.60;;;;;;5049353;28;20477;-81
2021/12/16 07:49:06;;;;;;;3.33;2.60;;;18.30;60.80;;;;;;5047808;28;20487;-81
2021/12/16 07:51:34;;;;;;;4.27;3.07;;;18.30;60.70;;;;;;5049513;28;20530;-81
2021/12/16 07:54:01;;;;;;;4.43;2.73;;;18.30;60.80;;;;;;5049344;28;20513;-81
2021/12/16 07:56:30;;;;;;;3.70;2.70;;;18.30;60.80;;;;;;5051554;28;20553;-81
2021/12/16 07:58:57;;;;;;;4.67;3.30;;;18.30;60.70;;;;;;5051150;28;20565;-81
2021/12/16 08:01:27;;;;;;;2.90;2.60;;;18.30;60.80;;;;;;5045397;28;20461;-81
2021/12/16 08:03:55;;;;;;;3.00;2.60;;;18.30;60.90;;;;;;5052622;28;20501;-81
2021/12/16 08:06:25;;;;;;;3.60;3.13;;;18.30;60.70;;;;;;5061282;28;20476;-81
2021/12/16 08:08:55;;;;;;;3.20;2.90;;;18.30;60.80;;;;;;5055082;28;20542;-81
2021/12/16 08:11:23;;;;;;;4.10;2.80;;;18.30;60.80;;;;;;5052429;28;20494;-81
2021/12/16 08:13:50;;;;;;;5.00;3.27;;;18.30;60.90;;;;;;5055068;28;20564;-81
2021/12/16 08:16:22;;;;;;;3.67;2.90;;;18.30;60.70;;;;;;5057458;28;20484;-81
2021/12/16 08:18:51;;;;;;;4.60;2.83;;;18.30;60.80;;;;;;5055163;28;20546;-82
2021/12/16 08:21:19;;;;;;;4.80;2.90;;;18.30;60.70;;;;;;5039317;28;20450;-81
2021/12/16 08:23:47;;;;;;;5.17;3.00;;;18.30;60.70;;;;;;5057251;28;20506;-82
2021/12/16 08:26:16;;;;;;;3.10;2.73;;;18.40;60.70;;;;;;5049223;28;20446;-83
2021/12/16 08:28:44;;;;;;;6.97;3.03;;;18.40;60.80;;;;;;5054343;28;20451;-83
2021/12/16 08:31:12;;;;;;;3.43;3.13;;;18.40;60.80;;;;;;5054211;28;20442;-83
2021/12/16 08:33:40;;;;;;;3.00;2.80;;;18.30;60.60;;;;;;5046333;28;20503;-82
2021/12/16 08:36:09;;;;;;;5.23;3.17;;;18.30;60.70;;;;;;5049705;28;20443;-83
2021/12/16 08:38:37;;;;;;;2.77;2.57;;;18.40;60.80;;;;;;5051214;28;20455;-83
2021/12/16 08:41:08;;;;;;;3.40;2.60;;;18.40;60.70;;;;;;5055060;28;20482;-82
2021/12/16 08:43:36;;;;;;;3.63;3.03;;;18.40;60.80;;;;;;5045870;28;20474;-82
2021/12/16 08:46:04;;;;;;;4.83;3.17;;;18.40;60.70;;;;;;5041693;28;20455;-83
2021/12/16 08:48:32;;;;;;;2.70;2.50;;;18.40;60.70;;;;;;5048779;28;20456;-82
2021/12/16 08:51:00;;;;;;;3.93;2.70;;;18.40;60.60;;;;;;5039477;28;20525;-82
2021/12/16 08:53:29;;;;;;;3.47;3.03;;;18.40;60.70;;;;;;5040770;28;20513;-82
2021/12/16 08:55:57;;;;;;;6.30;3.70;;;18.30;60.70;;;;;;5038551;28;20507;-82
2021/12/16 08:58:26;;;;;;;4.20;3.00;;;18.40;60.80;;;;;;5043321;28;20514;-82
2021/12/16 09:00:56;;;;;;;5.70;2.83;;;18.40;60.60;;;;;;5050759;28;20451;-82
2021/12/16 09:03:24;;;;;;;2.97;2.77;;;18.40;60.70;;;;;;5051319;28;20466;-82
2021/12/16 09:05:52;;;;;;;4.40;3.23;;;18.40;60.60;;;;;;5061656;28;20470;-82
2021/12/16 09:08:20;;;;;;;5.57;3.60;;;18.40;60.70;;;;;;5052583;28;20467;-82
2021/12/16 09:10:49;;;;;;;5.10;3.30;;;18.50;60.70;;;;;;5054742;28;20878;-82
2021/12/16 09:13:18;;;;;;;4.30;2.83;;;18.50;60.60;;;;;;5048542;28;20501;-82
2021/12/16 09:15:48;;;;;;;3.63;3.10;;;18.50;60.70;;;;;;5050880;28;20485;-82
2021/12/16 09:18:17;;;;;;;2.83;2.63;;;18.50;60.60;;;;;;5046477;28;20482;-82
2021/12/16 09:20:45;;;;;;;3.10;2.87;;;18.50;60.70;;;;;;5041390;28;20813;-82
2021/12/16 09:23:13;;;;;;;3.17;2.67;;;18.50;60.70;;;;;;5038349;28;20481;-81
2021/12/16 09:25:41;;;;;;;5.10;3.00;;;18.50;60.60;;;;;;5043460;28;20551;-81
2021/12/16 09:28:11;;;;;;;4.43;3.50;;;18.50;60.60;;;;;;5049150;28;20532;-81
2021/12/16 09:30:39;;;;;;;3.30;2.73;;;18.50;60.60;;;;;;5037864;28;20518;-81
2021/12/16 09:33:12;;;;;;;2.70;2.50;;;18.60;60.80;;;;;;5061158;28;20467;-82
2021/12/16 09:35:40;;;;;;;4.17;2.60;;;18.50;60.40;;;;;;5052646;28;20447;-83
2021/12/16 09:38:09;;;;;;;4.20;2.60;;;18.60;60.70;;;;;;5054292;28;20486;-83
2021/12/16 09:40:44;;;;;;;4.90;2.83;;;18.60;60.60;;;;;;5041079;28;20519;-82
2021/12/16 09:43:14;;;;;;;2.80;2.60;;;18.60;60.60;;;;;;5042215;28;20505;-83
2021/12/16 09:45:50;;;;;;;3.87;2.93;;;18.60;60.60;;;;;;5054702;28;20528;-84
2021/12/16 09:48:18;;;;;;;4.50;2.70;;;18.60;60.70;;;;;;5043611;28;20585;-85
2021/12/16 09:50:46;;;;;;;2.87;2.63;;;18.60;60.60;;;;;;5043924;28;20499;-85
2021/12/16 09:53:15;;;;;;;4.13;2.57;;;18.60;60.60;;;;;;5051869;28;20501;-85
2021/12/16 09:55:44;;;;;;;2.90;2.60;;;18.60;60.60;;;;;;5051686;28;20517;-85
2021/12/16 09:58:13;;;;;;;4.83;2.83;;;18.60;60.50;;;;;;5050239;28;20543;-85
2021/12/16 10:00:41;;;;;;;2.80;2.60;;;18.60;60.60;;;;;;5052115;28;20553;-85
2021/12/16 10:03:09;;;;;;;2.93;2.70;;;18.70;60.70;;;;;;5045558;28;20482;-85
2021/12/16 10:05:37;;;;;;;4.80;2.77;;;18.60;60.60;;;;;;5050274;28;20458;-85
2021/12/16 10:08:08;;;;;;;4.70;2.70;;;18.60;60.40;;;;;;5047993;28;20501;-85
2021/12/16 10:10:35;;;;;;;3.73;2.80;;;18.70;60.50;;;;;;5058556;28;20450;-85
2021/12/16 10:13:05;;;;;;;3.10;2.57;;;18.70;60.60;;;;;;5050871;28;20502;-85
2021/12/16 10:18:22;;;;;;;3.10;2.30;;;18.70;60.60;;;;;;5054790;28;20482;-85
2021/12/16 10:20:52;;;;;;;9.60;3.33;;;18.70;61.10;;;;;;5064305;28;20444;-86
2021/12/16 10:23:22;;;;;;;5.43;2.80;;;18.70;60.40;;;;;;5047112;28;20553;-86
2021/12/16 10:25:50;;;;;;;7.13;3.00;;;18.70;60.50;;;;;;5053339;28;20451;-85
2021/12/16 10:28:23;;;;;;;4.10;2.80;;;18.70;60.50;;;;;;5052792;28;20446;-85
2021/12/16 10:30:55;;;;;;;3.40;2.67;;;18.70;60.40;;;;;;5058347;28;20451;-87
2021/12/16 10:33:27;;;;;;;5.60;3.23;;;18.80;60.70;;;;;;5052450;28;20510;-87
2021/12/16 10:36:08;;;;;;;3.93;2.60;;;18.80;60.50;;;;;;5065651;28;20465;-86
2021/12/16 10:38:39;;;;;;;4.43;2.83;;;18.80;60.40;;;;;;5057639;28;20474;-87
2021/12/16 10:41:07;;;;;;;3.33;3.00;;;18.80;60.50;;;;;;5058700;28;20528;-87
2021/12/16 10:43:37;;;;;;;4.17;2.97;;;18.80;60.50;;;;;;5063829;28;20504;-87
2021/12/16 10:46:08;;;;;;;3.60;2.53;;;18.80;60.40;;;;;;5064665;28;20438;-87
2021/12/16 10:48:37;;;;;;;7.80;3.10;;;18.80;61.20;;;;;;5063602;28;20472;-87
2021/12/16 10:51:22;;;;;;;4.57;3.10;;;18.80;60.40;;;;;;5054303;28;20438;-85
2021/12/16 10:54:07;;;;;;;3.37;2.70;;;18.80;60.60;;;;;;5053322;28;20506;-85
2021/12/16 10:56:39;;;;;;;6.47;3.30;;;18.80;60.50;;;;;;5047359;28;20570;-85
2021/12/16 10:59:10;;;;;;;3.83;2.80;;;18.80;60.50;;;;;;5059675;28;20474;-85
2021/12/16 11:01:43;;;;;;;5.77;2.70;;;18.90;60.60;;;;;;5061498;28;20451;-85
2021/12/16 11:04:16;;;;;;;2.70;2.40;;;18.90;60.50;;;;;;5049153;28;20474;-85
2021/12/16 11:06:46;;;;;;;3.70;3.10;;;18.90;60.40;;;;;;5063727;28;20465;-86
2021/12/16 11:09:32;;;;;;;3.30;3.00;;;18.90;60.40;;;;;;5054924;28;20450;-85
2021/12/16 11:12:42;;;;;;;3.10;2.90;;;18.90;60.30;;;;;;5056437;28;20455;-85
2021/12/16 11:15:13;;;;;;;2.60;2.50;;;18.90;60.40;;;;;;5057832;28;20485;-86
2021/12/16 11:17:46;;;;;;;3.03;2.83;;;19.00;60.60;;;;;;5057805;28;20486;-87
2021/12/16 11:20:33;;;;;;;5.73;3.00;;;18.90;60.40;;;;;;5056274;28;20460;-85
2021/12/16 11:23:03;;;;;;;4.03;2.93;;;18.90;60.40;;;;;;5058847;28;20471;-86
2021/12/16 11:25:32;;;;;;;3.63;2.47;;;18.90;60.50;;;;;;5065993;28;20465;-86
2021/12/16 11:28:16;;;;;;;4.63;2.80;;;19.00;60.60;;;;;;5061826;28;20474;-86
2021/12/16 11:30:49;;;;;;;4.17;2.53;;;19.00;60.30;;;;;;5063032;28;20450;-86
2021/12/16 11:33:33;;;;;;;3.50;3.00;;;19.00;60.40;;;;;;5051715;28;20498;-85
2021/12/16 11:36:08;;;;;;;2.90;2.70;;;19.00;60.70;;;;;;5053764;28;20473;-85
2021/12/16 11:38:38;;;;;;;4.90;3.23;;;19.00;60.60;;;;;;5057331;28;20473;-86
2021/12/16 11:41:24;;;;;;;3.03;2.73;;;19.00;60.40;;;;;;5057339;28;20509;-86
2021/12/16 11:44:01;;;;;;;3.47;2.70;;;19.00;60.40;;;;;;5054345;28;20471;-85
2021/12/16 11:46:33;;;;;;;3.50;3.20;;;19.00;60.40;;;;;;5061840;28;20466;-85
2021/12/16 11:49:23;;;;;;;3.37;2.80;;;19.00;60.50;;;;;;5048531;28;20457;-85
2021/12/16 11:51:56;;;;;;;3.10;2.60;;;19.00;60.30;;;;;;5054193;28;20451;-85
2021/12/16 11:54:26;;;;;;;3.73;2.40;;;19.00;60.50;;;;;;5050802;28;20467;-85
2021/12/16 11:56:57;;;;;;;5.07;2.90;;;19.10;60.40;;;;;;5053912;28;20479;-85
2021/12/16 11:59:28;;;;;;;3.73;2.70;;;19.00;60.50;;;;;;5048129;28;20509;-85
2021/12/16 12:01:56;;;;;;;3.80;2.80;;;19.10;60.40;;;;;;5042904;28;20459;-85
2021/12/16 12:04:28;;;;;;;2.57;2.37;;;19.10;60.40;;;;;;5050110;28;20508;-85
2021/12/16 12:06:56;;;;;;;4.17;2.63;;;19.10;60.50;;;;;;5055646;28;20444;-86
2021/12/16 12:09:34;;;;;;;3.50;3.13;;;19.10;60.40;;;;;;5045037;28;20471;-85
2021/12/16 12:12:01;;;;;;;3.20;2.63;;;19.10;60.50;;;;;;5052033;28;20802;-85
2021/12/16 12:14:32;;;;;;;2.70;2.20;;;19.10;60.40;;;;;;5056034;28;20516;-85
2021/12/16 12:17:04;;;;;;;3.10;2.90;;;19.10;60.30;;;;;;5060791;28;20454;-85
2021/12/16 12:19:34;;;;;;;4.50;2.97;;;19.10;60.20;;;;;;5048495;28;20475;-85
2021/12/16 12:22:02;;;;;;;3.10;2.67;;;19.20;60.40;;;;;;5058833;28;20457;-85
2021/12/16 12:24:32;;;;;;;3.63;2.70;;;19.20;60.40;;;;;;5048750;28;20479;-85
2021/12/16 12:27:02;;;;;;;3.20;2.90;;;19.10;60.40;;;;;;5053908;28;20473;-85
2021/12/16 12:29:31;;;;;;;4.00;2.93;;;19.10;60.40;;;;;;5050754;28;20492;-86
2021/12/16 12:32:00;;;;;;;3.40;2.67;;;19.10;60.50;;;;;;5052746;28;20481;-86
2021/12/16 12:34:29;;;;;;;3.20;2.70;;;19.10;60.40;;;;;;5052912;28;20528;-86
2021/12/16 12:37:01;;;;;;;3.63;2.60;;;19.10;60.40;;;;;;5046739;28;20481;-83
2021/12/16 12:39:33;;;;;;;3.33;2.70;;;19.20;60.40;;;;;;5046991;28;20541;-83
2021/12/16 12:42:00;;;;;;;2.80;2.60;;;19.10;60.20;;;;;;5054251;28;20474;-84
2021/12/16 12:44:28;;;;;;;5.60;2.60;;;19.20;60.50;;;;;;5047448;28;20534;-83
2021/12/16 12:46:56;;;;;;;6.80;2.40;;;19.10;60.40;;;;;;5055059;28;20502;-83
2021/12/16 12:49:25;;;;;;;3.77;2.77;;;19.10;60.40;;;;;;5051248;28;20444;-82
2021/12/16 12:52:01;;;;;;;2.87;2.60;;;19.10;60.40;;;;;;5046693;28;20496;-83
2021/12/16 12:54:31;;;;;;;2.63;2.53;;;19.10;60.30;;;;;;5055579;28;20470;-83
2021/12/16 12:57:01;;;;;;;3.03;2.67;;;19.10;60.50;;;;;;5054938;28;20462;-83
2021/12/16 12:59:36;;;;;;;3.17;2.90;;;19.10;60.50;;;;;;5052741;28;20530;-84
2021/12/16 13:02:14;;;;;;;3.57;3.00;;;19.10;60.40;;;;;;5053785;28;20499;-84
2021/12/16 13:04:47;;;;;;;4.93;3.40;;;19.20;60.40;;;;;;5044049;28;20484;-85
2021/12/16 13:07:15;;;;;;;5.60;3.10;;;19.10;60.50;;;;;;5039665;28;20447;-85
2021/12/16 13:09:46;;;;;;;4.37;3.20;;;19.10;60.50;;;;;;5045966;28;20449;-85
2021/12/16 13:12:36;;;;;;;2.70;2.50;;;19.10;60.50;;;;;;5044953;28;20856;-84
2021/12/16 13:15:21;;;;;;;3.13;2.83;;;19.10;60.50;;;;;;5045787;28;20477;-84
2021/12/16 13:23:32;;;;;;;3.03;2.70;;;19.10;60.60;;;;;;5052000;28;20494;-85
2021/12/16 13:26:27;;;;;;;2.50;2.33;;;19.10;60.50;;;;;;5048006;28;20450;-85
2021/12/16 13:29:10;;;;;;;3.17;2.97;;;19.10;60.50;;;;;;5052700;28;20454;-85
2021/12/16 13:31:46;;;;;;;4.60;3.00;;;19.10;60.50;;;;;;5054804;28;20455;-85
2021/12/16 13:34:35;;;;;;;4.60;2.80;;;19.20;60.70;;;;;;5047327;28;20529;-84
2021/12/16 13:37:08;;;;;;;5.80;2.83;;;19.10;60.50;;;;;;5047525;28;20490;-85
2021/12/16 13:39:42;;;;;;;4.60;2.73;;;19.10;60.70;;;;;;5053209;28;20514;-87
2021/12/16 13:42:15;;;;;;;7.70;3.20;;;19.10;60.60;;;;;;5045796;28;20487;-84
2021/12/16 13:44:57;;;;;;;3.23;2.90;;;19.10;60.70;;;;;;5052066;28;20490;-84
2021/12/16 13:47:39;;;;;;;3.77;3.23;;;19.10;60.60;;;;;;5046290;28;20496;-86
2021/12/16 14:02:02;;;;;;;3.97;3.40;;;19.00;60.60;;;;;;5036278;28;20482;-86
2021/12/16 14:04:52;;;;;;;6.23;3.90;;;19.00;60.70;;;;;;5031996;28;20505;-87
2021/12/16 14:07:29;;;;;;;4.53;3.47;;;19.00;60.60;;;;;;5030044;28;20493;-85
2021/12/16 14:10:04;;;;;;;6.13;4.37;;;19.00;60.60;;;;;;5032889;28;20801;-86
2021/12/16 14:15:21;;;;;;;5.00;3.70;;;19.00;60.60;;;;;;5030966;28;20577;-86
2021/12/16 14:17:56;;;;;;;7.43;3.97;;;19.00;60.40;;;;;;5038030;28;21038;-86
2021/12/16 14:23:25;;;;;;;5.53;3.70;;;19.00;60.40;;;;;;5030156;28;20490;-86
2021/12/16 14:39:58;;;;;;;7.50;3.80;;;19.00;60.50;;;;;;5040700;28;20574;-87
2021/12/16 14:42:38;;;;;;;6.43;4.40;;;19.00;60.50;;;;;;5049716;28;20874;-86
2021/12/16 14:45:19;;;;;;;6.30;3.70;;;19.00;60.40;;;;;;5043033;28;20533;-86
2021/12/16 14:50:39;;;;;;;11.20;4.10;;;19.00;60.40;;;;;;5038163;28;20969;-87
2021/12/16 14:53:16;;;;;;;7.57;4.80;;;18.90;60.30;;;;;;5042790;28;20549;-87
2021/12/16 14:55:44;;;;;;;6.50;4.47;;;18.90;60.40;;;;;;5042231;28;20533;-87
2021/12/16 14:58:12;;;;;;;6.70;4.57;;;19.00;60.40;;;;;;5047103;28;20526;-87
2021/12/16 15:00:44;;;;;;;8.50;4.73;;;19.00;60.40;;;;;;5042219;28;20558;-86
2021/12/16 15:03:15;;;;;;;5.30;4.20;;;19.00;60.30;;;;;;5050495;28;20492;-85
2021/12/16 15:05:46;;;;;;;9.10;4.67;;;18.90;60.20;;;;;;5050937;28;20447;-85
2021/12/16 15:08:19;;;;;;;7.70;4.90;;;19.00;60.30;;;;;;5048031;28;20549;-85
2021/12/16 15:10:47;;;;;;;5.93;4.30;;;18.90;60.20;;;;;;5052108;28;20482;-85
2021/12/16 15:13:21;;;;;;;7.93;5.07;;;18.90;60.20;;;;;;5049956;28;20549;-84
2021/12/16 15:16:11;;;;;;;7.27;4.63;;;18.90;60.30;;;;;;5055874;28;20450;-84
2021/12/16 15:38:48;;;;;;;8.07;4.93;;;18.80;60.40;;;;;;5040397;28;20482;-84
2021/12/16 15:44:06;;;;;;;9.90;5.50;;;18.90;60.30;;;;;;5045109;28;20490;-85
2021/12/16 15:46:34;;;;;;;12.10;5.00;;;18.90;60.20;;;;;;5036278;28;20454;-85
2021/12/16 15:49:02;;;;;;;6.77;4.60;;;18.90;60.30;;;;;;5038506;28;20444;-85
2021/12/16 15:51:31;;;;;;;9.17;5.23;;;18.80;60.30;;;;;;5037229;28;20503;-85
2021/12/16 15:54:21;;;;;;;8.70;5.43;;;18.80;60.30;;;;;;5038479;28;20542;-85
2021/12/16 15:56:49;;;;;;;8.90;4.80;;;18.80;60.20;;;;;;5046003;28;20485;-85
2021/12/16 15:59:21;;;;;;;8.07;5.17;;;18.80;60.20;;;;;;5042959;28;20459;-85
2021/12/16 16:01:51;;;;;;;9.03;4.97;;;18.80;60.20;;;;;;5040335;28;20609;-85
2021/12/16 16:04:20;;;;;;;8.67;5.40;;;18.90;60.30;;;;;;5042562;28;20486;-85